Time;durP1;ratioP1;P1;durP2;ratioP2;P2;SDS_P1;SDS_P2;PMS_P1;PMS_P2;Temp;Humidity;BMP_temperature;BMP_pressure;BME280_temperature;BME280_humidity;BME280_pressure;Samples;Min_cycle;Max_cycle;Signal;HPM_P1;HPM_P2
2021/11/05 00:15:50;;;;;;;84.90;46.63;;;8.20;99.90;;;;;;6004715;23;20218;-93
2021/11/05 00:29:20;;;;;;;83.95;45.47;;;8.30;99.90;;;;;;5350634;23;20293;-92
2021/11/05 00:42:30;;;;;;;86.95;46.13;;;8.30;99.90;;;;;;5305720;23;20488;-92
2021/11/05 00:44:57;;;;;;;86.80;46.15;;;9.00;99.90;;;;;;4999620;28;20184;-93
2021/11/05 00:47:26;;;;;;;104.65;53.17;;;8.40;99.90;;;;;;5000420;28;20188;-91
2021/11/05 00:49:52;;;;;;;103.40;46.78;;;8.20;99.90;;;;;;5226798;23;20237;-91
2021/11/05 00:54:56;;;;;;;98.25;42.60;;;8.10;99.90;;;;;;5247182;23;20237;-93
2021/11/05 00:57:22;;;;;;;95.97;42.83;;;10.00;99.90;;;;;;4962237;28;20234;-91
2021/11/05 01:13:11;;;;;;;137.80;48.33;;;8.00;99.90;;;;;;5248757;23;20239;-91
2021/11/05 01:15:40;;;;;;;92.25;41.15;;;7.90;99.90;;;;;;5676887;23;20483;-92
2021/11/05 01:52:44;;;;;;;105.00;36.40;;;8.50;99.90;;;;;;5957838;23;20995;-91
2021/11/05 02:28:37;;;;;;;95.13;38.10;;;8.20;99.90;;;;;;5529578;23;20209;-88
2021/11/05 04:06:34;;;;;;;84.80;34.75;;;8.20;99.90;;;;;;5587216;23;20457;-91
2021/11/05 04:09:03;;;;;;;84.18;33.42;;;8.70;99.90;;;;;;4999588;28;20166;-93
2021/11/05 04:11:28;;;;;;;78.47;34.22;;;11.10;99.90;;;;;;5202266;23;20247;-93
2021/11/05 04:13:57;;;;;;;62.57;29.60;;;6.60;99.90;;;;;;4981506;28;20209;-91
2021/11/05 04:18:59;;;;;;;85.43;31.02;;;8.10;99.90;;;;;;5319582;23;20243;-92
2021/11/05 04:21:30;;;;;;;64.57;32.28;;;8.30;99.90;;;;;;5353640;23;20213;-93
2021/11/05 04:24:06;;;;;;;67.75;30.88;;;8.60;99.90;;;;;;4974997;28;20223;-91
2021/11/05 04:26:33;;;;;;;66.75;31.33;;;9.20;99.90;;;;;;4958746;28;20270;-92
2021/11/05 04:29:12;;;;;;;79.13;33.22;;;7.90;99.90;;;;;;5091734;23;20211;-92
2021/11/05 04:34:32;;;;;;;81.50;34.00;;;7.80;99.90;;;;;;4994764;28;20233;-90
2021/11/05 04:39:33;;;;;;;82.65;34.35;;;7.90;99.90;;;;;;5410214;23;20461;-92
2021/11/05 04:42:02;;;;;;;74.00;30.67;;;9.00;99.90;;;;;;4997098;28;20250;-92
2021/11/05 04:44:29;;;;;;;74.75;32.88;;;10.10;99.90;;;;;;4994972;28;20189;-90
2021/11/05 04:49:29;;;;;;;70.10;32.77;;;7.90;99.90;;;;;;4993119;28;20221;-92
2021/11/05 04:51:56;;;;;;;79.37;30.67;;;7.80;99.90;;;;;;5138998;23;21079;-93
2021/11/05 04:57:10;;;;;;;64.07;29.42;;;7.90;99.90;;;;;;5387176;23;20469;-93
2021/11/05 04:59:43;;;;;;;67.97;29.92;;;9.80;99.90;;;;;;5016451;28;20181;-91
2021/11/05 05:05:30;;;;;;;60.00;28.25;;;8.00;99.90;;;;;;5783818;23;20213;-91
2021/11/05 05:13:07;;;;;;;62.40;26.33;;;8.10;99.90;;;;;;5151122;23;20229;-91
2021/11/05 05:15:33;;;;;;;69.57;30.50;;;10.40;99.90;;;;;;5029981;23;20541;-89
2021/11/05 05:23:20;;;;;;;62.60;26.23;;;7.90;99.90;;;;;;5466470;23;20213;-89
2021/11/05 05:25:55;;;;;;;59.45;27.60;;;8.40;99.90;;;;;;5304155;23;20226;-92
2021/11/05 05:28:33;;;;;;;55.35;27.80;;;8.70;99.90;;;;;;5357891;23;20221;-92
2021/11/05 05:31:07;;;;;;;63.60;29.10;;;7.70;99.90;;;;;;5077783;23;20225;-89
2021/11/05 05:38:45;;;;;;;61.95;29.90;;;7.80;99.90;;;;;;5106900;23;20225;-92
2021/11/05 05:41:17;;;;;;;64.68;30.95;;;11.70;99.90;;;;;;5032369;23;20232;-90
2021/11/05 05:48:56;;;;;;;69.50;29.83;;;7.90;99.90;;;;;;5257433;23;20222;-88
2021/11/05 05:54:18;;;;;;;59.23;28.57;;;7.90;99.90;;;;;;5546700;23;20217;-91
2021/11/05 05:56:46;;;;;;;68.10;30.38;;;11.60;99.90;;;;;;5051024;23;20484;-90
2021/11/05 06:01:55;;;;;;;76.30;32.90;;;7.90;99.90;;;;;;5013199;28;20231;-92
2021/11/05 06:04:27;;;;;;;84.95;34.58;;;9.10;99.90;;;;;;5252579;23;20260;-91
2021/11/05 06:06:56;;;;;;;90.85;39.60;;;8.40;99.90;;;;;;5214190;23;20209;-91
2021/11/05 06:09:23;;;;;;;86.80;40.20;;;7.70;99.90;;;;;;4980204;28;20181;-91
2021/11/05 06:11:48;;;;;;;86.05;35.03;;;10.20;99.90;;;;;;5295108;23;20222;-92
2021/11/05 06:14:18;;;;;;;74.57;33.47;;;6.80;99.90;;;;;;4997849;28;20200;-92
2021/11/05 06:19:34;;;;;;;75.53;33.28;;;7.70;99.90;;;;;;5134261;23;20220;-93
2021/11/05 06:21:59;;;;;;;83.97;33.28;;;10.60;99.90;;;;;;4979834;28;20197;-88
2021/11/05 06:24:33;;;;;;;74.73;31.33;;;8.60;99.90;;;;;;4980313;28;20702;-92
2021/11/05 06:26:59;;;;;;;77.32;34.13;;;6.00;99.90;;;;;;4993609;28;20193;-92
2021/11/05 06:29:25;;;;;;;77.57;31.95;;;10.00;99.90;;;;;;4976182;28;20261;-89
2021/11/05 06:32:01;;;;;;;70.33;29.23;;;10.30;99.90;;;;;;4978422;28;20181;-92
2021/11/05 06:37:34;;;;;;;104.28;37.47;;;9.10;99.90;;;;;;4993003;28;20204;-92
2021/11/05 06:40:04;;;;;;;119.65;41.47;;;7.30;99.90;;;;;;4977837;28;20201;-86
2021/11/05 06:42:35;;;;;;;120.90;43.78;;;7.90;99.90;;;;;;4992747;28;20174;-92
2021/11/05 06:45:01;;;;;;;124.03;42.47;;;9.00;99.90;;;;;;4972962;28;20193;-88
2021/11/05 06:47:29;;;;;;;129.13;41.37;;;10.40;99.90;;;;;;4991103;28;20170;-88
2021/11/05 06:50:11;;;;;;;134.68;47.92;;;5.70;99.90;;;;;;4972272;28;20174;-92
2021/11/05 06:53:00;;;;;;;106.15;41.70;;;7.80;99.90;;;;;;4963778;29;20179;-91
2021/11/05 06:56:04;;;;;;;120.43;45.10;;;8.10;99.90;;;;;;4986378;28;20185;-89
2021/11/05 06:58:35;;;;;;;106.83;38.20;;;9.70;99.90;;;;;;4976170;28;20248;-92
2021/11/05 07:01:01;;;;;;;103.97;41.10;;;10.00;99.90;;;;;;4976250;28;20453;-89
2021/11/05 07:03:34;;;;;;;113.90;41.17;;;9.00;99.90;;;;;;4976613;28;20162;-90
2021/11/05 07:06:10;;;;;;;117.32;40.78;;;7.30;99.90;;;;;;4995219;28;20417;-93
2021/11/05 07:09:35;;;;;;;101.90;37.33;;;8.70;99.90;;;;;;4991825;28;20197;-88
2021/11/05 07:12:07;;;;;;;89.60;36.00;;;9.90;99.90;;;;;;4994474;28;20614;-91
2021/11/05 07:17:38;;;;;;;75.25;32.90;;;9.10;99.90;;;;;;4993047;28;20508;-90
2021/11/05 07:20:12;;;;;;;82.07;32.45;;;9.90;99.90;;;;;;4978146;28;20253;-89
2021/11/05 07:23:07;;;;;;;94.43;33.65;;;10.00;99.90;;;;;;4962373;28;20182;-92
2021/11/05 07:29:10;;;;;;;66.10;26.85;;;8.80;99.90;;;;;;5274671;23;20230;-89
2021/11/05 07:32:37;;;;;;;59.90;27.92;;;9.60;99.90;;;;;;4958265;29;20205;-91
2021/11/05 07:35:06;;;;;;;64.75;25.55;;;9.70;99.90;;;;;;4930215;29;20184;-88
2021/11/05 07:38:02;;;;;;;76.70;32.85;;;8.20;99.90;;;;;;4912366;29;20208;-93
2021/11/05 07:40:29;;;;;;;67.00;29.67;;;9.80;99.90;;;;;;4943947;29;20182;-92
2021/11/05 07:42:57;;;;;;;65.50;27.47;;;8.00;99.90;;;;;;5141098;23;20189;-89
2021/11/05 07:45:34;;;;;;;56.87;26.37;;;9.80;99.90;;;;;;5052642;23;20489;-91
2021/11/05 07:48:12;;;;;;;62.03;26.20;;;8.00;99.90;;;;;;4974431;28;20428;-92
2021/11/05 07:50:38;;;;;;;73.05;28.38;;;9.00;99.90;;;;;;4968217;28;20182;-90
2021/11/05 07:53:34;;;;;;;72.03;27.00;;;10.00;99.90;;;;;;4989305;28;20677;-91
2021/11/05 07:56:04;;;;;;;62.73;24.20;;;8.10;99.90;;;;;;4971326;28;20295;-89
2021/11/05 07:58:31;;;;;;;56.72;24.90;;;8.40;99.90;;;;;;4967510;28;20425;-90
2021/11/05 08:00:57;;;;;;;58.25;25.88;;;10.00;99.90;;;;;;4969338;28;20413;-87
2021/11/05 08:03:26;;;;;;;61.73;28.50;;;9.70;99.90;;;;;;4968557;28;20182;-89
2021/11/05 08:05:55;;;;;;;60.25;28.80;;;8.70;99.90;;;;;;4980974;28;20202;-89
2021/11/05 08:08:27;;;;;;;67.30;29.42;;;7.00;99.90;;;;;;4968470;29;20198;-91
2021/11/05 08:10:56;;;;;;;78.75;30.73;;;10.10;99.90;;;;;;4949663;29;20178;-89
2021/11/05 08:13:21;;;;;;;64.30;27.58;;;6.10;99.90;;;;;;4944593;29;20182;-90
2021/11/05 08:15:47;;;;;;;73.73;31.67;;;6.90;99.90;;;;;;4947536;29;20178;-90
2021/11/05 08:18:13;;;;;;;74.23;34.30;;;;;;;;;;4964684;29;20777;-90
2021/11/05 08:20:39;;;;;;;79.53;33.17;;;8.10;99.90;;;;;;4961727;29;20167;-90
2021/11/05 08:23:04;;;;;;;83.27;33.90;;;8.20;99.90;;;;;;4960155;29;20171;-90
2021/11/05 08:26:06;;;;;;;68.63;32.33;;;8.00;99.90;;;;;;4967529;29;20210;-90
2021/11/05 08:29:11;;;;;;;93.00;36.43;;;9.00;99.90;;;;;;4956669;29;20225;-92
2021/11/05 08:31:39;;;;;;;78.47;34.92;;;9.00;99.90;;;;;;4974996;28;20411;-92
2021/11/05 08:34:08;;;;;;;78.22;32.40;;;6.90;99.90;;;;;;4960016;28;20171;-89
2021/11/05 08:36:42;;;;;;;69.13;29.30;;;7.60;99.90;;;;;;4996057;28;20266;-90
2021/11/05 08:39:11;;;;;;;71.78;31.23;;;8.00;99.90;;;;;;4996830;28;20181;-90
2021/11/05 08:41:37;;;;;;;60.77;28.00;;;7.80;99.90;;;;;;4991996;28;20166;-90
2021/11/05 08:44:05;;;;;;;71.20;34.60;;;9.70;99.90;;;;;;4973241;28;20513;-87
2021/11/05 08:46:57;;;;;;;60.97;28.98;;;10.20;99.90;;;;;;4971457;28;20194;-91
2021/11/05 08:49:24;;;;;;;64.22;29.60;;;8.90;99.90;;;;;;4940703;28;20414;-91
2021/11/05 08:51:50;;;;;;;69.40;30.70;;;10.30;99.90;;;;;;4986133;28;20633;-86
2021/11/05 08:54:16;;;;;;;63.70;30.90;;;;;;;;;;4969066;28;20174;-88
2021/11/05 08:56:43;;;;;;;58.70;29.13;;;8.40;99.90;;;;;;4983794;28;20467;-88
2021/11/05 08:59:15;;;;;;;58.05;27.60;;;10.20;99.90;;;;;;4970516;28;20496;-87
2021/11/05 09:01:41;;;;;;;60.67;28.95;;;9.50;99.90;;;;;;4964882;28;20186;-90
2021/11/05 09:04:12;;;;;;;61.00;29.17;;;8.30;99.90;;;;;;4969456;28;20204;-92
2021/11/05 09:07:05;;;;;;;52.93;26.23;;;8.80;99.90;;;;;;4951096;28;20503;-91
2021/11/05 09:09:31;;;;;;;47.83;27.08;;;8.90;99.90;;;;;;4983778;28;20412;-91
2021/11/05 09:12:02;;;;;;;45.57;26.53;;;8.50;99.90;;;;;;4986502;28;20638;-91
2021/11/05 09:14:31;;;;;;;46.83;26.38;;;9.60;99.90;;;;;;4979257;28;20453;-92
2021/11/05 09:17:02;;;;;;;52.03;25.42;;;9.10;99.90;;;;;;4944550;28;20253;-92
2021/11/05 09:19:30;;;;;;;52.45;25.83;;;9.00;99.90;;;;;;5035242;23;20170;-91
2021/11/05 09:22:01;;;;;;;44.00;24.53;;;14.20;99.90;;;;;;4638002;23;10001799;-89
2021/11/05 09:24:30;;;;;;;46.60;26.55;;;8.30;99.90;;;;;;4993576;28;20424;-90
2021/11/05 09:26:56;;;;;;;45.85;25.48;;;8.90;99.90;;;;;;4986587;28;20938;-88
2021/11/05 09:29:22;;;;;;;49.73;29.10;;;;;;;;;;4998428;28;20165;-88
2021/11/05 09:31:48;;;;;;;43.93;26.27;;;9.40;99.90;;;;;;4981006;28;20185;-91
2021/11/05 09:34:22;;;;;;;42.00;26.57;;;10.40;99.90;;;;;;4982099;28;20644;-92
2021/11/05 09:36:48;;;;;;;47.80;26.30;;;8.50;99.90;;;;;;4982092;28;20987;-87
2021/11/05 09:39:14;;;;;;;38.53;23.70;;;11.70;99.90;;;;;;4988093;28;20512;-91
2021/11/05 09:41:59;;;;;;;47.20;27.57;;;9.90;99.90;;;;;;4989556;28;20439;-93
2021/11/05 09:44:25;;;;;;;44.73;25.00;;;8.20;99.90;;;;;;4987043;28;20231;-89
2021/11/05 09:46:52;;;;;;;35.47;25.92;;;10.50;99.90;;;;;;5005430;28;20471;-88
2021/11/05 09:49:23;;;;;;;41.65;26.48;;;11.80;99.90;;;;;;5009451;28;20256;-92
2021/11/05 09:52:00;;;;;;;44.87;26.43;;;12.10;99.90;;;;;;4658387;28;9999755;-93
2021/11/05 09:54:33;;;;;;;43.67;28.50;;;9.90;99.90;;;;;;4992512;28;20531;-92
2021/11/05 09:57:08;;;;;;;48.40;30.90;;;11.80;99.90;;;;;;5010397;28;20476;-92
2021/11/05 09:59:53;;;;;;;42.92;28.13;;;9.80;99.90;;;;;;5002908;28;20487;-91
2021/11/05 10:02:29;;;;;;;42.40;26.73;;;10.60;99.90;;;;;;4958219;28;20193;-92
2021/11/05 10:05:00;;;;;;;46.92;29.23;;;10.60;99.90;;;;;;4988678;28;20821;-91
2021/11/05 10:07:38;;;;;;;48.03;31.23;;;11.70;99.90;;;;;;4983238;28;20193;-89
2021/11/05 10:10:04;;;;;;;56.70;31.17;;;9.00;99.90;;;;;;5003510;28;20423;-87
2021/11/05 10:12:32;;;;;;;50.30;29.02;;;9.70;99.90;;;;;;5003748;28;20420;-88
2021/11/05 10:15:06;;;;;;;52.17;29.30;;;10.20;99.90;;;;;;4986028;28;20184;-89
2021/11/05 10:17:43;;;;;;;;;;;;;;;;;;;;;
2021/11/05 10:20:20;;;;;;;46.47;29.77;;;11.00;99.90;;;;;;5005386;28;20542;-89
2021/11/05 10:23:17;;;;;;;;;;;;;;;;;;;;;
2021/11/05 10:25:48;;;;;;;48.97;29.77;;;10.20;99.90;;;;;;5006742;28;20492;-90
2021/11/05 10:28:27;;;;;;;53.38;30.92;;;13.80;99.90;;;;;;4987189;28;20419;-91
2021/11/05 10:31:06;;;;;;;50.40;31.00;;;10.10;99.90;;;;;;4985682;28;20641;-87
2021/11/05 10:33:44;;;;;;;39.80;25.53;;;10.90;99.90;;;;;;4999032;28;20969;-88
2021/11/05 10:36:18;;;;;;;38.97;26.13;;;10.80;99.90;;;;;;4998793;28;20475;-88
2021/11/05 10:38:53;;;;;;;32.80;25.37;;;11.10;99.90;;;;;;4981334;28;20713;-89
2021/11/05 10:41:21;;;;;;;32.50;23.20;;;13.80;99.90;;;;;;4981879;28;20803;-91
2021/11/05 10:43:55;;;;;;;31.30;25.23;;;13.10;99.90;;;;;;4983728;28;20431;-88
2021/11/05 10:46:27;;;;;;;30.53;23.33;;;11.60;99.90;;;;;;4982924;28;20424;-87
2021/11/05 10:48:57;;;;;;;32.10;24.03;;;11.60;99.90;;;;;;5000788;28;20415;-89
2021/11/05 10:51:25;;;;;;;32.83;22.17;;;11.70;99.90;;;;;;4998524;28;20876;-90
2021/11/05 10:53:58;;;;;;;30.60;25.47;;;13.30;99.90;;;;;;4986827;28;20421;-89
2021/11/05 10:56:28;;;;;;;31.07;24.30;;;12.80;99.90;;;;;;4980493;28;20518;-89
2021/11/05 10:59:03;;;;;;;30.60;23.40;;;11.50;99.90;;;;;;4980790;28;20421;-89
2021/11/05 11:01:34;;;;;;;33.57;25.00;;;13.60;99.90;;;;;;4965612;28;20504;-88
2021/11/05 11:04:08;;;;;;;30.73;22.33;;;13.40;99.90;;;;;;4986521;28;20413;-90
2021/11/05 11:07:08;;;;;;;32.83;26.87;;;11.90;99.90;;;;;;4986739;28;20492;-89
2021/11/05 11:10:04;;;;;;;26.17;20.90;;;11.80;99.90;;;;;;4989330;28;20413;-89
2021/11/05 11:12:34;;;;;;;30.73;24.60;;;13.20;99.90;;;;;;4996788;28;20417;-88
2021/11/05 11:15:40;;;;;;;29.40;26.20;;;13.10;99.90;;;;;;4998107;28;20413;-89
2021/11/05 11:18:05;;;;;;;26.38;22.73;;;11.40;99.90;;;;;;4996187;28;20444;-87
2021/11/05 11:20:36;;;;;;;26.40;21.00;;;11.40;99.90;;;;;;5002113;28;20209;-89
2021/11/05 11:23:02;;;;;;;28.95;23.83;;;11.90;99.90;;;;;;4999955;28;20569;-89
2021/11/05 11:25:29;;;;;;;27.90;23.20;;;13.60;99.90;;;;;;4987052;28;20254;-87
2021/11/05 11:27:55;;;;;;;23.53;18.60;;;14.20;99.90;;;;;;4979074;28;20429;-88
2021/11/05 11:30:21;;;;;;;19.73;17.73;;;11.20;99.90;;;;;;4976677;28;20413;-89
2021/11/05 11:32:50;;;;;;;20.00;18.00;;;12.60;99.90;;;;;;4974347;28;20448;-88
2021/11/05 11:35:18;;;;;;;20.17;17.47;;;11.10;99.90;;;;;;4997057;28;20164;-88
2021/11/05 11:37:45;;;;;;;22.17;18.50;;;14.00;99.90;;;;;;4978818;28;20467;-88
2021/11/05 11:40:14;;;;;;;23.87;21.30;;;11.40;99.90;;;;;;4996041;28;20436;-87
2021/11/05 11:42:42;;;;;;;22.43;20.30;;;11.50;99.90;;;;;;4304858;28;10000729;-86
2021/11/05 11:45:16;;;;;;;21.57;19.30;;;10.30;99.90;;;;;;4995369;28;20445;-88
2021/11/05 11:47:59;;;;;;;20.13;17.70;;;11.70;99.90;;;;;;4978273;28;20416;-87
2021/11/05 11:50:37;;;;;;;19.07;17.17;;;11.30;99.90;;;;;;4995444;28;20416;-87
2021/11/05 11:53:36;;;;;;;18.27;16.10;;;12.30;99.90;;;;;;4991527;28;20422;-88
2021/11/05 11:56:05;;;;;;;16.10;14.60;;;12.40;99.90;;;;;;4965058;28;20452;-86
2021/11/05 11:58:35;;;;;;;19.23;15.83;;;12.70;99.90;;;;;;4976001;28;20822;-87
2021/11/05 12:01:34;;;;;;;15.47;13.80;;;12.20;99.90;;;;;;4972355;28;20501;-88
2021/11/05 12:04:06;;;;;;;16.83;14.03;;;14.00;99.90;;;;;;4974864;28;20413;-88
2021/11/05 12:06:55;;;;;;;16.20;14.80;;;12.40;99.90;;;;;;4973569;28;20422;-87
2021/11/05 12:09:41;;;;;;;21.07;17.50;;;12.60;99.90;;;;;;4956293;28;20790;-87
2021/11/05 12:12:24;;;;;;;17.77;14.37;;;14.30;99.90;;;;;;4971938;28;20514;-87
2021/11/05 12:15:02;;;;;;;15.40;13.33;;;14.50;99.90;;;;;;4956575;28;20417;-88
2021/11/05 12:17:33;;;;;;;13.13;11.97;;;12.80;99.90;;;;;;4956101;28;20508;-87
2021/11/05 12:20:05;;;;;;;16.27;14.60;;;14.70;99.90;;;;;;4956622;28;20820;-86
2021/11/05 12:22:31;;;;;;;15.10;13.70;;;11.30;99.90;;;;;;4972210;28;20835;-87
2021/11/05 12:25:33;;;;;;;;;;;;;;;;;;;;;
2021/11/05 12:28:25;;;;;;;14.33;13.07;;;16.20;99.90;;;;;;4974638;28;20427;-86
2021/11/05 12:30:54;;;;;;;15.80;11.90;;;12.60;99.90;;;;;;4974347;28;20414;-88
2021/11/05 12:33:34;;;;;;;13.47;11.90;;;15.10;99.90;;;;;;4973188;28;20481;-88
2021/11/05 12:36:05;;;;;;;15.40;13.80;;;12.80;99.90;;;;;;4973627;28;20567;-88
2021/11/05 12:38:42;;;;;;;13.67;12.17;;;14.80;99.90;;;;;;4981359;28;20906;-90
2021/11/05 12:41:08;;;;;;;13.57;12.33;;;12.90;99.90;;;;;;4975955;28;20406;-84
2021/11/05 12:47:21;;;;;;;;;;;;;;;;;;;;;
2021/11/05 12:50:12;;;;;;;14.67;10.90;;;11.80;99.90;;;;;;4993821;28;20479;-85
2021/11/05 12:52:38;;;;;;;13.83;10.83;;;12.60;99.90;;;;;;4974680;28;20824;-90
2021/11/05 12:55:04;;;;;;;12.73;11.40;;;12.20;99.90;;;;;;4974727;28;20491;-87
2021/11/05 12:57:30;;;;;;;10.50;9.40;;;12.40;99.90;;;;;;4992580;28;20205;-88
2021/11/05 12:59:56;;;;;;;10.30;9.30;;;12.70;99.90;;;;;;4991771;28;21018;-88
2021/11/05 13:02:23;;;;;;;9.50;7.60;;;11.80;99.90;;;;;;4991544;28;20416;-86
2021/11/05 13:04:50;;;;;;;9.50;8.80;;;11.80;99.90;;;;;;4964821;28;20261;-86
2021/11/05 13:07:57;;;;;;;12.87;7.53;;;11.80;99.90;;;;;;4991884;28;20420;-89
2021/11/05 13:10:33;;;;;;;7.57;7.00;;;14.50;99.90;;;;;;4978575;28;20888;-87
2021/11/05 13:13:00;;;;;;;8.27;7.63;;;15.50;99.90;;;;;;4955736;28;21008;-87
2021/11/05 13:15:30;;;;;;;8.57;7.67;;;13.70;99.90;;;;;;4972731;28;20416;-87
2021/11/05 13:17:58;;;;;;;8.83;8.20;;;15.00;99.90;;;;;;4972609;28;20564;-87
2021/11/05 13:20:38;;;;;;;13.00;7.00;;;16.50;99.90;;;;;;4972105;28;20441;-88
2021/11/05 13:23:06;;;;;;;6.13;5.53;;;13.80;99.90;;;;;;4956073;28;20437;-88
2021/11/05 13:25:35;;;;;;;7.63;7.00;;;17.30;99.90;;;;;;4973064;28;20424;-88
2021/11/05 13:28:40;;;;;;;5.70;5.37;;;16.90;96.20;;;;;;4973547;28;20925;-87
2021/11/05 13:31:08;;;;;;;5.63;5.17;;;17.50;94.50;;;;;;4861404;28;20429;-87
2021/11/05 13:33:36;;;;;;;6.57;6.00;;;20.40;95.40;;;;;;4972951;28;20889;-89
2021/11/05 13:36:10;;;;;;;6.07;5.60;;;22.20;90.60;;;;;;4971735;28;20786;-89
2021/11/05 13:38:38;;;;;;;7.00;5.47;;;19.30;84.70;;;;;;4972125;28;20459;-88
2021/11/05 13:41:22;;;;;;;7.37;5.13;;;20.60;90.50;;;;;;4955870;28;20560;-88
2021/11/05 13:44:06;;;;;;;7.83;7.23;;;18.60;83.80;;;;;;4971231;28;20448;-86
2021/11/05 13:46:33;;;;;;;7.07;6.47;;;21.00;90.20;;;;;;5004636;28;20405;-93
2021/11/05 13:49:03;;;;;;;6.63;6.03;;;17.30;89.60;;;;;;4998980;28;20416;-89
2021/11/05 13:51:33;;;;;;;5.33;4.93;;;19.30;96.90;;;;;;4976279;28;20412;-86
2021/11/05 13:54:14;;;;;;;;;;;;;;;;;;;;;
2021/11/05 13:56:45;;;;;;;6.90;6.40;;;18.20;99.30;;;;;;4996486;28;20470;-86
2021/11/05 13:59:27;;;;;;;6.93;6.33;;;17.00;99.90;;;;;;4978095;28;20814;-88
2021/11/05 14:01:54;;;;;;;7.10;6.43;;;14.10;99.90;;;;;;4978458;28;20416;-89
2021/11/05 14:04:24;;;;;;;6.27;5.80;;;14.10;99.90;;;;;;4980514;28;20490;-90
2021/11/05 14:06:54;;;;;;;7.37;6.57;;;16.30;99.90;;;;;;4996874;28;20905;-90
2021/11/05 14:09:32;;;;;;;7.37;6.27;;;15.30;99.90;;;;;;4998112;28;20503;-89
2021/11/05 14:12:01;;;;;;;6.03;5.63;;;13.90;99.90;;;;;;4979093;28;20416;-95
2021/11/05 14:14:33;;;;;;;11.67;5.70;;;16.20;99.90;;;;;;4978753;28;20428;-87
2021/11/05 14:17:16;;;;;;;5.43;5.00;;;17.00;99.90;;;;;;4995380;28;20451;-89
2021/11/05 14:20:04;;;;;;;5.60;5.20;;;14.30;99.90;;;;;;4996618;28;20455;-91
2021/11/05 14:22:35;;;;;;;8.20;4.80;;;14.20;99.90;;;;;;4979071;28;20468;-90
2021/11/05 14:25:11;;;;;;;6.30;5.70;;;16.20;99.90;;;;;;4979428;28;20447;-87
2021/11/05 14:27:40;;;;;;;7.10;5.70;;;13.70;99.90;;;;;;4979587;28;20503;-89
2021/11/05 14:30:16;;;;;;;6.90;6.23;;;13.80;99.90;;;;;;4988705;28;20502;-91
2021/11/05 14:32:47;;;;;;;6.20;5.70;;;15.10;99.90;;;;;;4999155;28;20459;-88
2021/11/05 14:35:17;;;;;;;6.50;5.03;;;13.20;99.90;;;;;;4991824;28;20426;-91
2021/11/05 14:37:58;;;;;;;5.03;4.60;;;11.00;99.90;;;;;;4982128;28;20472;-90
2021/11/05 14:40:31;;;;;;;4.80;4.40;;;15.20;99.90;;;;;;4980122;28;20496;-90
2021/11/05 14:43:02;;;;;;;5.43;4.90;;;13.30;99.90;;;;;;4963701;28;20793;-89
2021/11/05 14:45:33;;;;;;;5.17;4.80;;;13.80;99.90;;;;;;4982221;28;20409;-90
2021/11/05 14:48:25;;;;;;;12.67;4.97;;;13.30;99.90;;;;;;4964919;28;20432;-90
2021/11/05 14:51:11;;;;;;;11.57;5.53;;;13.30;99.90;;;;;;4980635;28;20433;-91
2021/11/05 14:54:31;;;;;;;3.90;3.80;;;13.10;99.90;;;;;;4980745;28;20414;-90
2021/11/05 14:57:45;;;;;;;5.60;4.70;;;13.50;99.90;;;;;;4929881;28;20472;-92
2021/11/05 15:00:35;;;;;;;5.83;5.20;;;13.10;99.90;;;;;;4951749;28;20420;-92
2021/11/05 15:03:15;;;;;;;6.37;4.87;;;12.90;99.90;;;;;;4979739;28;20500;-90
2021/11/05 15:05:52;;;;;;;14.00;7.10;;;12.90;99.90;;;;;;4979140;28;20469;-91
2021/11/05 15:08:23;;;;;;;5.50;5.13;;;14.90;99.90;;;;;;4981435;28;20424;-88
2021/11/05 15:11:30;;;;;;;8.87;5.70;;;13.30;99.90;;;;;;4980574;28;20406;-90
2021/11/05 15:14:12;;;;;;;;;;;;;;;;;;;;;
2021/11/05 15:17:14;;;;;;;;;;;;;;;;;;;;;
2021/11/05 15:20:04;;;;;;;8.67;5.50;;;12.70;99.90;;;;;;4981043;28;20511;-93
2021/11/05 15:23:24;;;;;;;6.17;5.87;;;12.30;99.90;;;;;;4963009;28;20488;-93
2021/11/05 15:26:24;;;;;;;;;;;;;;;;;;;;;
2021/11/05 15:29:36;;;;;;;6.73;5.93;;;11.30;99.90;;;;;;4999401;28;20507;-93
2021/11/05 15:35:38;;;;;;;;;;;;;;;;;;;;;
2021/11/05 15:38:12;;;;;;;8.50;5.93;;;12.60;99.90;;;;;;4637040;28;10000093;-89
2021/11/05 15:40:49;;;;;;;;;;;;;;;;;;;;;
2021/11/05 15:43:21;;;;;;;4.87;4.50;;;11.50;99.90;;;;;;4981581;28;20485;-90
2021/11/05 15:46:02;;;;;;;;;;;;;;;;;;;;;
2021/11/05 15:51:22;;;;;;;6.03;4.70;;;12.90;99.90;;;;;;4974848;28;20460;-90
2021/11/05 16:10:34;;;;;;;7.90;5.93;;;14.90;99.90;;;;;;4974855;28;20414;-89
2021/11/05 16:13:01;;;;;;;10.53;7.73;;;12.00;99.90;;;;;;5176330;23;20495;-91
2021/11/05 16:15:35;;;;;;;7.87;7.30;;;14.30;99.90;;;;;;5016051;28;20432;-94
2021/11/05 16:18:03;;;;;;;8.60;7.80;;;12.50;99.90;;;;;;4991610;28;20452;-87
2021/11/05 16:21:29;;;;;;;;;;;;;;;;;;;;;
2021/11/05 16:27:22;;;;;;;12.17;7.63;;;14.70;99.90;;;;;;4919517;29;20474;-93
2021/11/05 16:30:04;;;;;;;;;;;;;;;;;;;;;
2021/11/05 16:33:10;;;;;;;10.83;8.77;;;12.00;99.90;;;;;;4945965;29;20522;-91
2021/11/05 16:39:06;;;;;;;10.50;7.80;;;14.00;99.90;;;;;;4992398;28;20443;-92
2021/11/05 16:41:44;;;;;;;9.73;9.00;;;11.00;99.90;;;;;;4989466;28;20416;-86
2021/11/05 16:44:13;;;;;;;10.37;8.63;;;9.20;99.90;;;;;;5001765;28;20416;-89
2021/11/05 16:46:39;;;;;;;10.10;9.00;;;11.90;99.90;;;;;;5001953;28;20425;-91
2021/11/05 16:49:11;;;;;;;10.10;8.90;;;13.20;99.90;;;;;;4981634;28;20428;-90
2021/11/05 16:51:41;;;;;;;12.80;9.63;;;13.70;99.90;;;;;;4998409;28;20165;-88
2021/11/05 16:54:11;;;;;;;11.90;8.90;;;12.70;99.90;;;;;;4997308;28;20424;-91
2021/11/05 16:56:37;;;;;;;9.60;8.77;;;11.20;99.90;;;;;;4998704;28;20467;-90
2021/11/05 16:59:03;;;;;;;13.73;9.50;;;13.20;99.90;;;;;;4997865;28;20452;-90
2021/11/05 17:01:34;;;;;;;9.57;8.80;;;11.10;99.90;;;;;;4998720;28;20459;-90
2021/11/05 17:04:03;;;;;;;13.70;9.50;;;11.50;99.90;;;;;;4982054;28;20423;-89
2021/11/05 17:06:31;;;;;;;10.70;9.70;;;13.50;99.90;;;;;;4983494;28;20499;-89
2021/11/05 17:09:03;;;;;;;9.80;8.80;;;10.40;99.90;;;;;;4980784;28;20413;-90
2021/11/05 17:11:49;;;;;;;11.53;10.53;;;9.60;99.90;;;;;;5000250;28;20409;-89
2021/11/05 17:14:16;;;;;;;11.47;9.93;;;9.90;99.90;;;;;;4983782;28;20787;-88
2021/11/05 17:16:42;;;;;;;12.87;10.47;;;12.50;99.90;;;;;;5000372;28;21046;-92
2021/11/05 17:19:16;;;;;;;12.67;9.63;;;11.70;99.90;;;;;;4986543;28;20535;-91
2021/11/05 17:29:55;;;;;;;;;;;;;;;;;;;;;
2021/11/05 17:32:31;;;;;;;13.03;11.47;;;11.90;99.90;;;;;;5179536;23;20527;-87
2021/11/05 17:38:19;;;;;;;13.27;11.98;;;10.40;99.90;;;;;;5108503;23;20495;-92
2021/11/05 17:41:14;;;;;;;13.52;12.07;;;9.20;99.90;;;;;;4968131;28;20200;-93
2021/11/05 17:44:12;;;;;;;;;;;;;;;;;;;;;
2021/11/05 17:46:56;;;;;;;15.43;11.13;;;8.10;99.90;;;;;;4983353;28;20509;-92
2021/11/05 17:49:25;;;;;;;13.57;12.17;;;12.40;99.90;;;;;;4968982;28;20437;-90
2021/11/05 17:54:48;;;;;;;;;;;;;;;;;;;;;
2021/11/05 17:57:29;;;;;;;22.27;16.30;;;11.20;99.90;;;;;;4985072;28;20553;-94
2021/11/05 18:00:13;;;;;;;;;;;;;;;;;;;;;
2021/11/05 18:06:47;;;;;;;20.63;16.10;;;9.90;99.90;;;;;;5007133;28;20411;-93
2021/11/05 18:09:17;;;;;;;31.20;17.57;;;10.00;99.90;;;;;;5006605;28;20437;-90
2021/11/05 18:11:53;;;;;;;;;;;;;;;;;;;;;
2021/11/05 18:14:39;;;;;;;;;;;;;;;;;;;;;
2021/11/05 18:17:37;;;;;;;24.53;20.80;;;9.60;99.90;;;;;;4989778;28;20547;-92
2021/11/05 18:20:28;;;;;;;26.42;21.52;;;9.00;99.90;;;;;;4966357;28;20453;-91
2021/11/05 18:22:56;;;;;;;29.00;23.40;;;9.30;99.90;;;;;;4989197;28;20725;-91
2021/11/05 18:25:25;;;;;;;23.33;20.50;;;10.80;99.90;;;;;;5007462;28;20412;-91
2021/11/05 18:28:02;;;;;;;41.55;27.77;;;9.50;99.90;;;;;;4993055;28;20182;-90
2021/11/05 18:30:37;;;;;;;36.75;27.85;;;9.00;99.90;;;;;;4992669;28;20181;-91
2021/11/05 18:33:25;;;;;;;34.55;25.75;;;9.10;99.90;;;;;;5013272;28;20149;-91
2021/11/05 18:36:28;;;;;;;43.53;35.20;;;11.70;99.90;;;;;;5012734;28;20193;-90
2021/11/05 18:39:40;;;;;;;41.42;31.08;;;9.10;99.90;;;;;;4989569;28;20198;-91
2021/11/05 18:42:27;;;;;;;38.47;26.27;;;7.20;99.90;;;;;;4993010;28;20237;-90
2021/11/05 18:45:41;;;;;;;;;;;;;;;;;;;;;
2021/11/05 18:48:31;;;;;;;29.95;25.17;;;10.30;99.90;;;;;;4954016;28;20204;-94
2021/11/05 18:54:42;;;;;;;;;;;;;;;;;;;;;
2021/11/05 19:00:39;;;;;;;36.28;24.00;;;8.30;99.90;;;;;;5048197;23;20242;-91
2021/11/05 19:04:02;;;;;;;;;;;;;;;;;;;;;
2021/11/05 19:07:13;;;;;;;28.35;23.42;;;6.70;99.90;;;;;;4916207;28;20173;-93
2021/11/05 19:10:10;;;;;;;;;;;;;;;;;;;;;
2021/11/05 19:13:03;;;;;;;;;;;;;;;;;;;;;
2021/11/05 19:19:11;;;;;;;54.33;24.80;;;10.60;99.90;;;;;;4981682;28;20473;-92
2021/11/05 19:21:59;;;;;;;51.42;23.27;;;8.10;99.90;;;;;;4973117;28;20182;-93
2021/11/05 19:25:19;;;;;;;;;;;;;;;;;;;;;